sensor_id;sensor_type;location;lat;lon;timestamp;temperature;humidity
81366;DHT22;70822;51.990;22.766;2023-07-22T00:10:44;15.80;64.70
81366;DHT22;70822;51.990;22.766;2023-07-22T00:25:49;15.80;65.30
81366;DHT22;70822;51.990;22.766;2023-07-22T00:40:53;15.70;65.80
81366;DHT22;70822;51.990;22.766;2023-07-22T00:55:58;15.50;69.80
81366;DHT22;70822;51.990;22.766;2023-07-22T01:11:04;15.40;69.60
81366;DHT22;70822;51.990;22.766;2023-07-22T01:26:10;15.70;69.70
81366;DHT22;70822;51.990;22.766;2023-07-22T01:41:14;15.90;69.80
81366;DHT22;70822;51.990;22.766;2023-07-22T01:56:19;15.90;70.90
81366;DHT22;70822;51.990;22.766;2023-07-22T02:11:25;16.00;71.20
81366;DHT22;70822;51.990;22.766;2023-07-22T02:26:29;16.00;70.70
81366;DHT22;70822;51.990;22.766;2023-07-22T02:41:34;15.90;70.70
81366;DHT22;70822;51.990;22.766;2023-07-22T02:56:39;16.00;71.10
81366;DHT22;70822;51.990;22.766;2023-07-22T03:11:44;16.00;75.50
81366;DHT22;70822;51.990;22.766;2023-07-22T03:26:49;16.20;75.50
81366;DHT22;70822;51.990;22.766;2023-07-22T03:41:54;16.40;76.00
81366;DHT22;70822;51.990;22.766;2023-07-22T03:56:59;16.60;76.80
81366;DHT22;70822;51.990;22.766;2023-07-22T04:12:04;16.90;76.70
81366;DHT22;70822;51.990;22.766;2023-07-22T04:27:09;17.10;77.70
81366;DHT22;70822;51.990;22.766;2023-07-22T04:42:14;17.30;77.90
81366;DHT22;70822;51.990;22.766;2023-07-22T04:57:19;17.40;78.70
81366;DHT22;70822;51.990;22.766;2023-07-22T05:12:25;17.70;77.80
81366;DHT22;70822;51.990;22.766;2023-07-22T05:27:29;17.90;77.60
81366;DHT22;70822;51.990;22.766;2023-07-22T05:42:34;18.60;77.50
81366;DHT22;70822;51.990;22.766;2023-07-22T05:57:39;22.90;68.80
81366;DHT22;70822;51.990;22.766;2023-07-22T06:12:43;27.50;56.30
81366;DHT22;70822;51.990;22.766;2023-07-22T06:27:48;26.30;55.80
81366;DHT22;70822;51.990;22.766;2023-07-22T06:42:54;25.70;55.70
81366;DHT22;70822;51.990;22.766;2023-07-22T06:57:59;24.10;58.20
81366;DHT22;70822;51.990;22.766;2023-07-22T07:13:04;23.20;61.60
81366;DHT22;70822;51.990;22.766;2023-07-22T07:28:09;24.40;61.80
81366;DHT22;70822;51.990;22.766;2023-07-22T07:43:15;25.60;58.60
81366;DHT22;70822;51.990;22.766;2023-07-22T07:58:20;25.50;57.20
81366;DHT22;70822;51.990;22.766;2023-07-22T08:13:26;25.40;56.10
81366;DHT22;70822;51.990;22.766;2023-07-22T08:28:32;25.50;56.20
81366;DHT22;70822;51.990;22.766;2023-07-22T08:43:40;25.80;53.50
81366;DHT22;70822;51.990;22.766;2023-07-22T08:58:48;25.80;52.30
81366;DHT22;70822;51.990;22.766;2023-07-22T09:13:54;26.00;51.20
81366;DHT22;70822;51.990;22.766;2023-07-22T09:29:01;25.80;50.90
81366;DHT22;70822;51.990;22.766;2023-07-22T09:44:09;25.40;52.40
81366;DHT22;70822;51.990;22.766;2023-07-22T09:59:18;25.10;51.00
81366;DHT22;70822;51.990;22.766;2023-07-22T10:14:24;25.80;52.10
81366;DHT22;70822;51.990;22.766;2023-07-22T10:29:30;26.10;50.60
81366;DHT22;70822;51.990;22.766;2023-07-22T10:44:38;24.80;54.30
81366;DHT22;70822;51.990;22.766;2023-07-22T10:59:49;25.20;52.10
81366;DHT22;70822;51.990;22.766;2023-07-22T11:15:02;25.80;48.10
81366;DHT22;70822;51.990;22.766;2023-07-22T11:30:11;25.90;47.00
81366;DHT22;70822;51.990;22.766;2023-07-22T11:45:16;26.10;45.80
81366;DHT22;70822;51.990;22.766;2023-07-22T12:00:21;26.00;44.90
81366;DHT22;70822;51.990;22.766;2023-07-22T12:15:26;25.60;44.20
81366;DHT22;70822;51.990;22.766;2023-07-22T12:30:32;25.70;44.90
81366;DHT22;70822;51.990;22.766;2023-07-22T12:45:37;25.70;41.80
81366;DHT22;70822;51.990;22.766;2023-07-22T13:00:43;25.80;41.90
81366;DHT22;70822;51.990;22.766;2023-07-22T13:15:48;26.10;40.90
81366;DHT22;70822;51.990;22.766;2023-07-22T13:30:53;26.20;39.30
81366;DHT22;70822;51.990;22.766;2023-07-22T13:45:58;26.20;39.30
81366;DHT22;70822;51.990;22.766;2023-07-22T14:01:05;26.00;39.70
81366;DHT22;70822;51.990;22.766;2023-07-22T14:16:17;25.50;39.40
81366;DHT22;70822;51.990;22.766;2023-07-22T14:31:26;25.20;40.30
81366;DHT22;70822;51.990;22.766;2023-07-22T14:46:31;25.60;41.30
81366;DHT22;70822;51.990;22.766;2023-07-22T15:01:40;25.60;40.00
81366;DHT22;70822;51.990;22.766;2023-07-22T15:16:46;25.50;39.20
81366;DHT22;70822;51.990;22.766;2023-07-22T15:31:51;25.10;40.20
81366;DHT22;70822;51.990;22.766;2023-07-22T15:46:57;24.80;40.50
81366;DHT22;70822;51.990;22.766;2023-07-22T16:02:03;25.30;40.90
81366;DHT22;70822;51.990;22.766;2023-07-22T16:17:09;25.00;40.60
81366;DHT22;70822;51.990;22.766;2023-07-22T16:32:14;24.60;41.60
81366;DHT22;70822;51.990;22.766;2023-07-22T16:47:19;24.50;41.40
81366;DHT22;70822;51.990;22.766;2023-07-22T17:02:23;24.50;41.90
81366;DHT22;70822;51.990;22.766;2023-07-22T17:17:29;24.20;42.00
81366;DHT22;70822;51.990;22.766;2023-07-22T17:32:34;24.00;42.20
81366;DHT22;70822;51.990;22.766;2023-07-22T17:47:38;23.50;41.80
81366;DHT22;70822;51.990;22.766;2023-07-22T18:02:46;23.10;42.70
81366;DHT22;70822;51.990;22.766;2023-07-22T18:18:00;22.70;44.10
81366;DHT22;70822;51.990;22.766;2023-07-22T18:33:05;22.60;45.50
81366;DHT22;70822;51.990;22.766;2023-07-22T18:48:09;22.40;46.40
81366;DHT22;70822;51.990;22.766;2023-07-22T19:03:14;21.70;46.90
81366;DHT22;70822;51.990;22.766;2023-07-22T19:18:19;20.80;48.10
81366;DHT22;70822;51.990;22.766;2023-07-22T19:33:24;19.90;49.30
81366;DHT22;70822;51.990;22.766;2023-07-22T19:48:30;19.10;49.60
81366;DHT22;70822;51.990;22.766;2023-07-22T20:03:38;18.60;50.80
81366;DHT22;70822;51.990;22.766;2023-07-22T20:18:44;18.30;51.30
81366;DHT22;70822;51.990;22.766;2023-07-22T20:33:49;18.10;51.60
81366;DHT22;70822;51.990;22.766;2023-07-22T20:48:54;17.90;52.30
81366;DHT22;70822;51.990;22.766;2023-07-22T21:03:59;17.40;52.80
81366;DHT22;70822;51.990;22.766;2023-07-22T21:19:04;17.00;53.10
81366;DHT22;70822;51.990;22.766;2023-07-22T21:34:08;16.70;53.50
81366;DHT22;70822;51.990;22.766;2023-07-22T21:49:17;16.40;54.10
81366;DHT22;70822;51.990;22.766;2023-07-22T22:04:22;16.00;54.40
81366;DHT22;70822;51.990;22.766;2023-07-22T22:19:28;15.90;55.30
81366;DHT22;70822;51.990;22.766;2023-07-22T22:34:32;15.70;55.40
81366;DHT22;70822;51.990;22.766;2023-07-22T22:49:37;15.40;56.30
81366;DHT22;70822;51.990;22.766;2023-07-22T23:04:42;15.10;56.50
81366;DHT22;70822;51.990;22.766;2023-07-22T23:19:49;14.90;56.60
81366;DHT22;70822;51.990;22.766;2023-07-22T23:34:54;14.80;57.00
81366;DHT22;70822;51.990;22.766;2023-07-22T23:50:01;14.40;57.40
